sensor_id;sensor_type;location;lat;lon;timestamp;temperature;humidity
52787;DHT22;38661;53.152;5.846;2022-10-31T00:00:00;12.20;96.20
52787;DHT22;38661;53.152;5.846;2022-10-31T00:02:26;12.10;96.10
52787;DHT22;38661;53.152;5.846;2022-10-31T00:04:52;12.10;96.20
52787;DHT22;38661;53.152;5.846;2022-10-31T00:07:17;12.10;96.20
52787;DHT22;38661;53.152;5.846;2022-10-31T00:09:43;12.10;96.20
52787;DHT22;38661;53.152;5.846;2022-10-31T00:12:09;12.10;96.30
52787;DHT22;38661;53.152;5.846;2022-10-31T00:14:34;12.10;96.30
52787;DHT22;38661;53.152;5.846;2022-10-31T00:17:00;12.10;96.10
52787;DHT22;38661;53.152;5.846;2022-10-31T00:19:26;12.00;96.50
52787;DHT22;38661;53.152;5.846;2022-10-31T00:21:52;12.10;96.50
52787;DHT22;38661;53.152;5.846;2022-10-31T00:24:17;12.10;96.60
52787;DHT22;38661;53.152;5.846;2022-10-31T00:26:43;12.00;96.50
52787;DHT22;38661;53.152;5.846;2022-10-31T00:29:10;12.10;96.70
52787;DHT22;38661;53.152;5.846;2022-10-31T00:31:35;12.10;96.80
52787;DHT22;38661;53.152;5.846;2022-10-31T00:34:01;12.10;96.70
52787;DHT22;38661;53.152;5.846;2022-10-31T00:39:17;12.00;96.80
52787;DHT22;38661;53.152;5.846;2022-10-31T00:41:43;12.10;96.80
52787;DHT22;38661;53.152;5.846;2022-10-31T00:44:34;12.10;96.70
52787;DHT22;38661;53.152;5.846;2022-10-31T00:47:02;12.00;96.70
52787;DHT22;38661;53.152;5.846;2022-10-31T00:49:28;12.00;96.70
52787;DHT22;38661;53.152;5.846;2022-10-31T00:51:54;12.00;96.60
52787;DHT22;38661;53.152;5.846;2022-10-31T00:54:19;12.00;96.60
52787;DHT22;38661;53.152;5.846;2022-10-31T00:56:45;12.10;96.70
52787;DHT22;38661;53.152;5.846;2022-10-31T00:59:11;12.10;96.60
52787;DHT22;38661;53.152;5.846;2022-10-31T01:01:36;12.10;96.60
52787;DHT22;38661;53.152;5.846;2022-10-31T01:04:02;12.10;96.80
52787;DHT22;38661;53.152;5.846;2022-10-31T01:06:28;12.10;96.70
52787;DHT22;38661;53.152;5.846;2022-10-31T01:08:54;12.10;96.80
52787;DHT22;38661;53.152;5.846;2022-10-31T01:11:22;12.10;96.70
52787;DHT22;38661;53.152;5.846;2022-10-31T01:13:50;12.10;96.60
52787;DHT22;38661;53.152;5.846;2022-10-31T01:16:21;12.10;96.60
52787;DHT22;38661;53.152;5.846;2022-10-31T01:18:47;12.10;96.50
52787;DHT22;38661;53.152;5.846;2022-10-31T01:21:15;12.00;96.40
52787;DHT22;38661;53.152;5.846;2022-10-31T01:23:41;12.00;96.40
52787;DHT22;38661;53.152;5.846;2022-10-31T01:26:13;12.00;96.30
52787;DHT22;38661;53.152;5.846;2022-10-31T01:28:46;12.00;96.20
52787;DHT22;38661;53.152;5.846;2022-10-31T01:31:13;11.90;96.10
52787;DHT22;38661;53.152;5.846;2022-10-31T01:33:39;11.90;96.20
52787;DHT22;38661;53.152;5.846;2022-10-31T01:36:23;11.90;96.10
52787;DHT22;38661;53.152;5.846;2022-10-31T01:38:50;11.80;96.10
52787;DHT22;38661;53.152;5.846;2022-10-31T01:41:19;11.80;96.00
52787;DHT22;38661;53.152;5.846;2022-10-31T01:43:49;11.80;96.10
52787;DHT22;38661;53.152;5.846;2022-10-31T01:46:22;11.70;96.00
52787;DHT22;38661;53.152;5.846;2022-10-31T01:48:51;11.70;95.70
52787;DHT22;38661;53.152;5.846;2022-10-31T01:51:20;11.60;95.70
52787;DHT22;38661;53.152;5.846;2022-10-31T01:53:48;11.60;95.80
52787;DHT22;38661;53.152;5.846;2022-10-31T01:56:16;11.60;95.70
52787;DHT22;38661;53.152;5.846;2022-10-31T01:58:42;11.50;95.60
52787;DHT22;38661;53.152;5.846;2022-10-31T02:01:10;11.50;95.50
52787;DHT22;38661;53.152;5.846;2022-10-31T02:03:37;11.40;95.50
52787;DHT22;38661;53.152;5.846;2022-10-31T02:06:07;11.30;95.30
52787;DHT22;38661;53.152;5.846;2022-10-31T02:08:36;11.20;95.30
52787;DHT22;38661;53.152;5.846;2022-10-31T02:11:02;11.10;95.00
52787;DHT22;38661;53.152;5.846;2022-10-31T02:13:29;11.00;95.00
52787;DHT22;38661;53.152;5.846;2022-10-31T02:15:57;11.00;95.00
52787;DHT22;38661;53.152;5.846;2022-10-31T02:18:26;11.00;95.10
52787;DHT22;38661;53.152;5.846;2022-10-31T02:24:08;11.00;95.00
52787;DHT22;38661;53.152;5.846;2022-10-31T02:32:25;11.00;95.20
52787;DHT22;38661;53.152;5.846;2022-10-31T02:34:56;11.00;95.20
52787;DHT22;38661;53.152;5.846;2022-10-31T02:38:05;11.00;95.20
52787;DHT22;38661;53.152;5.846;2022-10-31T02:40:44;11.00;95.00
52787;DHT22;38661;53.152;5.846;2022-10-31T02:43:35;11.00;95.10
52787;DHT22;38661;53.152;5.846;2022-10-31T02:46:48;11.00;95.00
52787;DHT22;38661;53.152;5.846;2022-10-31T02:49:33;10.90;95.00
52787;DHT22;38661;53.152;5.846;2022-10-31T02:52:01;11.00;95.10
52787;DHT22;38661;53.152;5.846;2022-10-31T02:54:28;11.00;95.10
52787;DHT22;38661;53.152;5.846;2022-10-31T02:57:02;11.00;94.90
52787;DHT22;38661;53.152;5.846;2022-10-31T02:59:29;10.90;94.90
52787;DHT22;38661;53.152;5.846;2022-10-31T03:05:34;10.70;94.50
52787;DHT22;38661;53.152;5.846;2022-10-31T03:08:28;10.70;94.70
52787;DHT22;38661;53.152;5.846;2022-10-31T03:10:58;10.60;94.70
52787;DHT22;38661;53.152;5.846;2022-10-31T03:16:27;10.50;94.60
52787;DHT22;38661;53.152;5.846;2022-10-31T03:19:03;10.50;94.70
52787;DHT22;38661;53.152;5.846;2022-10-31T03:21:45;10.50;94.40
52787;DHT22;38661;53.152;5.846;2022-10-31T03:24:13;10.50;94.60
52787;DHT22;38661;53.152;5.846;2022-10-31T03:26:44;10.50;94.60
52787;DHT22;38661;53.152;5.846;2022-10-31T03:29:15;10.50;94.70
52787;DHT22;38661;53.152;5.846;2022-10-31T03:32:01;10.50;94.80
52787;DHT22;38661;53.152;5.846;2022-10-31T03:34:29;10.60;95.00
52787;DHT22;38661;53.152;5.846;2022-10-31T03:36:59;10.60;95.10
52787;DHT22;38661;53.152;5.846;2022-10-31T03:39:26;10.60;95.20
52787;DHT22;38661;53.152;5.846;2022-10-31T03:44:30;10.60;95.20
52787;DHT22;38661;53.152;5.846;2022-10-31T03:46:58;10.70;95.20
52787;DHT22;38661;53.152;5.846;2022-10-31T03:49:24;10.70;95.30
52787;DHT22;38661;53.152;5.846;2022-10-31T03:52:01;10.60;95.30
52787;DHT22;38661;53.152;5.846;2022-10-31T03:54:42;10.60;95.40
52787;DHT22;38661;53.152;5.846;2022-10-31T03:57:33;10.70;95.40
52787;DHT22;38661;53.152;5.846;2022-10-31T04:00:12;10.60;95.60
52787;DHT22;38661;53.152;5.846;2022-10-31T04:02:41;10.60;95.70
52787;DHT22;38661;53.152;5.846;2022-10-31T04:05:09;10.50;95.80
52787;DHT22;38661;53.152;5.846;2022-10-31T04:07:39;10.60;95.80
52787;DHT22;38661;53.152;5.846;2022-10-31T04:10:09;10.50;95.80
52787;DHT22;38661;53.152;5.846;2022-10-31T04:12:36;10.50;95.80
52787;DHT22;38661;53.152;5.846;2022-10-31T04:15:05;10.50;95.80
52787;DHT22;38661;53.152;5.846;2022-10-31T04:17:34;10.50;95.70
52787;DHT22;38661;53.152;5.846;2022-10-31T04:20:02;10.50;95.70
52787;DHT22;38661;53.152;5.846;2022-10-31T04:22:28;10.50;95.70
52787;DHT22;38661;53.152;5.846;2022-10-31T04:24:54;10.50;95.70
52787;DHT22;38661;53.152;5.846;2022-10-31T04:27:20;10.50;95.80
52787;DHT22;38661;53.152;5.846;2022-10-31T04:29:45;10.40;95.80
52787;DHT22;38661;53.152;5.846;2022-10-31T04:32:11;10.40;95.80
52787;DHT22;38661;53.152;5.846;2022-10-31T04:34:37;10.40;95.80
52787;DHT22;38661;53.152;5.846;2022-10-31T04:37:02;10.30;95.60
52787;DHT22;38661;53.152;5.846;2022-10-31T04:39:28;10.20;95.50
52787;DHT22;38661;53.152;5.846;2022-10-31T04:41:54;10.20;95.40
52787;DHT22;38661;53.152;5.846;2022-10-31T04:44:20;10.20;95.50
52787;DHT22;38661;53.152;5.846;2022-10-31T04:46:46;10.10;95.50
52787;DHT22;38661;53.152;5.846;2022-10-31T04:49:11;10.10;95.70
52787;DHT22;38661;53.152;5.846;2022-10-31T04:51:37;10.10;95.80
52787;DHT22;38661;53.152;5.846;2022-10-31T04:54:03;10.20;95.80
52787;DHT22;38661;53.152;5.846;2022-10-31T04:56:29;10.20;95.80
52787;DHT22;38661;53.152;5.846;2022-10-31T04:58:54;10.20;95.70
52787;DHT22;38661;53.152;5.846;2022-10-31T05:01:20;10.20;95.80
52787;DHT22;38661;53.152;5.846;2022-10-31T05:03:46;10.20;95.80
52787;DHT22;38661;53.152;5.846;2022-10-31T05:06:11;10.20;95.80
52787;DHT22;38661;53.152;5.846;2022-10-31T05:08:37;10.30;95.80
52787;DHT22;38661;53.152;5.846;2022-10-31T05:11:04;10.20;95.70
52787;DHT22;38661;53.152;5.846;2022-10-31T05:13:30;10.20;95.80
52787;DHT22;38661;53.152;5.846;2022-10-31T05:15:56;10.20;95.90
52787;DHT22;38661;53.152;5.846;2022-10-31T05:18:22;10.20;95.90
52787;DHT22;38661;53.152;5.846;2022-10-31T05:20:48;10.20;96.00
52787;DHT22;38661;53.152;5.846;2022-10-31T05:23:13;10.20;95.90
52787;DHT22;38661;53.152;5.846;2022-10-31T05:25:40;10.20;96.00
52787;DHT22;38661;53.152;5.846;2022-10-31T05:28:06;10.30;96.00
52787;DHT22;38661;53.152;5.846;2022-10-31T05:30:32;10.20;96.00
52787;DHT22;38661;53.152;5.846;2022-10-31T05:32:58;10.20;96.00
52787;DHT22;38661;53.152;5.846;2022-10-31T05:35:27;10.30;96.00
52787;DHT22;38661;53.152;5.846;2022-10-31T05:37:53;10.30;96.10
52787;DHT22;38661;53.152;5.846;2022-10-31T05:40:19;10.30;96.20
52787;DHT22;38661;53.152;5.846;2022-10-31T05:42:46;10.30;96.10
52787;DHT22;38661;53.152;5.846;2022-10-31T05:45:14;10.30;96.20
52787;DHT22;38661;53.152;5.846;2022-10-31T05:47:40;10.30;96.20
52787;DHT22;38661;53.152;5.846;2022-10-31T05:50:07;10.30;96.20
52787;DHT22;38661;53.152;5.846;2022-10-31T05:52:33;10.30;96.20
52787;DHT22;38661;53.152;5.846;2022-10-31T05:54:59;10.30;96.20
52787;DHT22;38661;53.152;5.846;2022-10-31T05:57:25;10.30;96.20
52787;DHT22;38661;53.152;5.846;2022-10-31T05:59:50;10.30;96.20
52787;DHT22;38661;53.152;5.846;2022-10-31T06:02:20;10.30;96.10
52787;DHT22;38661;53.152;5.846;2022-10-31T06:04:45;10.30;96.10
52787;DHT22;38661;53.152;5.846;2022-10-31T06:07:11;10.30;96.00
52787;DHT22;38661;53.152;5.846;2022-10-31T06:09:37;10.20;95.70
52787;DHT22;38661;53.152;5.846;2022-10-31T06:12:02;10.10;95.60
52787;DHT22;38661;53.152;5.846;2022-10-31T06:14:28;10.10;95.60
52787;DHT22;38661;53.152;5.846;2022-10-31T06:16:55;10.00;95.50
52787;DHT22;38661;53.152;5.846;2022-10-31T06:19:21;9.90;95.40
52787;DHT22;38661;53.152;5.846;2022-10-31T06:21:47;9.90;95.50
52787;DHT22;38661;53.152;5.846;2022-10-31T06:24:12;9.90;95.60
52787;DHT22;38661;53.152;5.846;2022-10-31T06:26:38;9.90;95.70
52787;DHT22;38661;53.152;5.846;2022-10-31T06:29:04;9.90;95.70
52787;DHT22;38661;53.152;5.846;2022-10-31T06:31:30;9.90;95.80
52787;DHT22;38661;53.152;5.846;2022-10-31T06:33:56;9.90;95.60
52787;DHT22;38661;53.152;5.846;2022-10-31T06:36:22;9.80;95.60
52787;DHT22;38661;53.152;5.846;2022-10-31T06:38:48;9.70;95.60
52787;DHT22;38661;53.152;5.846;2022-10-31T06:41:13;9.70;95.70
52787;DHT22;38661;53.152;5.846;2022-10-31T06:43:39;9.70;95.80
52787;DHT22;38661;53.152;5.846;2022-10-31T06:46:05;9.80;95.90
52787;DHT22;38661;53.152;5.846;2022-10-31T06:48:31;9.80;96.00
52787;DHT22;38661;53.152;5.846;2022-10-31T06:51:01;9.80;96.00
52787;DHT22;38661;53.152;5.846;2022-10-31T06:53:27;9.80;96.10
52787;DHT22;38661;53.152;5.846;2022-10-31T06:55:58;9.80;96.00
52787;DHT22;38661;53.152;5.846;2022-10-31T06:58:24;9.70;95.90
52787;DHT22;38661;53.152;5.846;2022-10-31T07:00:50;9.80;96.00
52787;DHT22;38661;53.152;5.846;2022-10-31T07:03:16;9.80;96.00
52787;DHT22;38661;53.152;5.846;2022-10-31T07:05:42;9.80;95.90
52787;DHT22;38661;53.152;5.846;2022-10-31T07:08:10;9.80;95.90
52787;DHT22;38661;53.152;5.846;2022-10-31T07:10:38;9.80;95.90
52787;DHT22;38661;53.152;5.846;2022-10-31T07:13:05;9.70;95.80
52787;DHT22;38661;53.152;5.846;2022-10-31T07:15:37;9.70;95.90
52787;DHT22;38661;53.152;5.846;2022-10-31T07:18:05;9.70;95.80
52787;DHT22;38661;53.152;5.846;2022-10-31T07:20:32;9.70;95.70
52787;DHT22;38661;53.152;5.846;2022-10-31T07:22:57;9.70;95.90
52787;DHT22;38661;53.152;5.846;2022-10-31T07:25:24;9.70;95.90
52787;DHT22;38661;53.152;5.846;2022-10-31T07:27:50;9.80;95.90
52787;DHT22;38661;53.152;5.846;2022-10-31T07:30:16;9.80;96.00
52787;DHT22;38661;53.152;5.846;2022-10-31T07:32:50;9.80;96.10
52787;DHT22;38661;53.152;5.846;2022-10-31T07:35:21;9.80;96.10
52787;DHT22;38661;53.152;5.846;2022-10-31T07:37:48;9.90;96.20
52787;DHT22;38661;53.152;5.846;2022-10-31T07:40:14;9.90;96.30
52787;DHT22;38661;53.152;5.846;2022-10-31T07:42:41;9.90;96.40
52787;DHT22;38661;53.152;5.846;2022-10-31T07:45:10;10.00;96.40
52787;DHT22;38661;53.152;5.846;2022-10-31T07:47:49;10.00;96.30
52787;DHT22;38661;53.152;5.846;2022-10-31T07:50:17;10.10;96.30
52787;DHT22;38661;53.152;5.846;2022-10-31T07:52:43;10.10;96.20
52787;DHT22;38661;53.152;5.846;2022-10-31T07:55:10;10.10;96.20
52787;DHT22;38661;53.152;5.846;2022-10-31T07:57:36;10.10;96.20
52787;DHT22;38661;53.152;5.846;2022-10-31T08:00:07;10.10;96.10
52787;DHT22;38661;53.152;5.846;2022-10-31T08:02:33;10.10;96.10
52787;DHT22;38661;53.152;5.846;2022-10-31T08:04:59;10.20;96.20
52787;DHT22;38661;53.152;5.846;2022-10-31T08:07:25;10.30;96.20
52787;DHT22;38661;53.152;5.846;2022-10-31T08:09:51;10.30;96.20
52787;DHT22;38661;53.152;5.846;2022-10-31T08:12:17;10.40;96.20
52787;DHT22;38661;53.152;5.846;2022-10-31T08:14:43;10.40;96.30
52787;DHT22;38661;53.152;5.846;2022-10-31T08:17:10;10.50;96.40
52787;DHT22;38661;53.152;5.846;2022-10-31T08:19:36;10.60;96.40
52787;DHT22;38661;53.152;5.846;2022-10-31T08:22:02;10.60;96.50
52787;DHT22;38661;53.152;5.846;2022-10-31T08:24:27;10.60;96.50
52787;DHT22;38661;53.152;5.846;2022-10-31T08:26:53;10.70;96.60
52787;DHT22;38661;53.152;5.846;2022-10-31T08:29:19;10.80;96.60
52787;DHT22;38661;53.152;5.846;2022-10-31T08:31:44;10.80;96.50
52787;DHT22;38661;53.152;5.846;2022-10-31T08:34:11;10.90;96.60
52787;DHT22;38661;53.152;5.846;2022-10-31T08:36:37;11.00;96.80
52787;DHT22;38661;53.152;5.846;2022-10-31T08:39:03;11.10;96.70
52787;DHT22;38661;53.152;5.846;2022-10-31T08:41:29;11.10;96.60
52787;DHT22;38661;53.152;5.846;2022-10-31T08:43:55;11.20;96.70
52787;DHT22;38661;53.152;5.846;2022-10-31T08:46:21;11.30;96.50
52787;DHT22;38661;53.152;5.846;2022-10-31T08:48:50;11.40;96.60
52787;DHT22;38661;53.152;5.846;2022-10-31T08:51:15;11.40;96.60
52787;DHT22;38661;53.152;5.846;2022-10-31T08:53:41;11.50;96.70
52787;DHT22;38661;53.152;5.846;2022-10-31T08:56:07;11.60;96.70
52787;DHT22;38661;53.152;5.846;2022-10-31T08:58:33;11.70;96.60
52787;DHT22;38661;53.152;5.846;2022-10-31T09:01:00;11.80;96.70
52787;DHT22;38661;53.152;5.846;2022-10-31T09:03:30;11.90;96.50
52787;DHT22;38661;53.152;5.846;2022-10-31T09:06:02;12.00;96.50
52787;DHT22;38661;53.152;5.846;2022-10-31T09:08:31;12.10;96.30
52787;DHT22;38661;53.152;5.846;2022-10-31T09:10:58;12.20;96.30
52787;DHT22;38661;53.152;5.846;2022-10-31T09:13:24;12.30;96.10
52787;DHT22;38661;53.152;5.846;2022-10-31T09:15:50;12.40;96.00
52787;DHT22;38661;53.152;5.846;2022-10-31T09:18:19;12.50;96.00
52787;DHT22;38661;53.152;5.846;2022-10-31T09:20:46;12.60;95.80
52787;DHT22;38661;53.152;5.846;2022-10-31T09:23:21;12.70;95.70
52787;DHT22;38661;53.152;5.846;2022-10-31T09:25:49;12.70;95.50
52787;DHT22;38661;53.152;5.846;2022-10-31T09:28:17;12.80;95.40
52787;DHT22;38661;53.152;5.846;2022-10-31T09:30:46;12.90;95.30
52787;DHT22;38661;53.152;5.846;2022-10-31T09:33:12;13.00;95.20
52787;DHT22;38661;53.152;5.846;2022-10-31T09:35:39;13.10;95.10
52787;DHT22;38661;53.152;5.846;2022-10-31T09:38:14;13.20;95.10
52787;DHT22;38661;53.152;5.846;2022-10-31T09:41:20;13.30;94.90
52787;DHT22;38661;53.152;5.846;2022-10-31T09:46:30;13.60;94.40
52787;DHT22;38661;53.152;5.846;2022-10-31T09:51:45;13.90;93.80
52787;DHT22;38661;53.152;5.846;2022-10-31T09:55:02;13.90;93.90
52787;DHT22;38661;53.152;5.846;2022-10-31T09:57:02;13.90;93.70
52787;DHT22;38661;53.152;5.846;2022-10-31T09:59:38;13.90;93.50
52787;DHT22;38661;53.152;5.846;2022-10-31T10:05:00;13.80;93.60
52787;DHT22;38661;53.152;5.846;2022-10-31T10:10:00;13.70;93.80
52787;DHT22;38661;53.152;5.846;2022-10-31T10:15:47;13.80;93.50
52787;DHT22;38661;53.152;5.846;2022-10-31T10:18:27;13.90;93.50
52787;DHT22;38661;53.152;5.846;2022-10-31T10:21:25;13.90;93.80
52787;DHT22;38661;53.152;5.846;2022-10-31T10:26:41;14.00;93.70
52787;DHT22;38661;53.152;5.846;2022-10-31T10:29:17;14.10;93.40
52787;DHT22;38661;53.152;5.846;2022-10-31T10:31:44;14.20;93.00
52787;DHT22;38661;53.152;5.846;2022-10-31T10:34:30;14.30;93.10
52787;DHT22;38661;53.152;5.846;2022-10-31T10:37:08;14.20;91.60
52787;DHT22;38661;53.152;5.846;2022-10-31T10:39:44;14.20;91.90
52787;DHT22;38661;53.152;5.846;2022-10-31T10:42:15;14.30;92.40
52787;DHT22;38661;53.152;5.846;2022-10-31T10:45:13;14.30;91.90
52787;DHT22;38661;53.152;5.846;2022-10-31T10:48:05;14.40;92.30
52787;DHT22;38661;53.152;5.846;2022-10-31T10:50:36;14.50;92.10
52787;DHT22;38661;53.152;5.846;2022-10-31T10:56:15;14.80;91.50
52787;DHT22;38661;53.152;5.846;2022-10-31T10:58:42;14.90;91.30
52787;DHT22;38661;53.152;5.846;2022-10-31T11:01:15;14.90;90.00
52787;DHT22;38661;53.152;5.846;2022-10-31T11:03:41;15.00;90.50
52787;DHT22;38661;53.152;5.846;2022-10-31T11:06:18;15.10;90.50
52787;DHT22;38661;53.152;5.846;2022-10-31T11:08:48;15.30;89.90
52787;DHT22;38661;53.152;5.846;2022-10-31T11:13:44;15.50;90.00
52787;DHT22;38661;53.152;5.846;2022-10-31T11:21:38;15.60;89.10
52787;DHT22;38661;53.152;5.846;2022-10-31T11:24:24;15.70;89.30
52787;DHT22;38661;53.152;5.846;2022-10-31T11:27:36;15.80;89.30
52787;DHT22;38661;53.152;5.846;2022-10-31T11:30:05;15.90;89.20
52787;DHT22;38661;53.152;5.846;2022-10-31T11:32:31;15.90;88.50
52787;DHT22;38661;53.152;5.846;2022-10-31T11:35:00;16.00;88.50
52787;DHT22;38661;53.152;5.846;2022-10-31T11:37:29;16.00;87.70
52787;DHT22;38661;53.152;5.846;2022-10-31T11:39:57;16.00;87.60
52787;DHT22;38661;53.152;5.846;2022-10-31T11:42:34;15.90;86.60
52787;DHT22;38661;53.152;5.846;2022-10-31T11:45:05;15.80;86.30
52787;DHT22;38661;53.152;5.846;2022-10-31T11:47:33;15.90;87.60
52787;DHT22;38661;53.152;5.846;2022-10-31T11:50:02;15.80;86.20
52787;DHT22;38661;53.152;5.846;2022-10-31T11:52:37;15.70;86.30
52787;DHT22;38661;53.152;5.846;2022-10-31T11:57:47;15.60;87.30
52787;DHT22;38661;53.152;5.846;2022-10-31T12:00:29;15.50;87.20
52787;DHT22;38661;53.152;5.846;2022-10-31T12:03:12;15.40;87.60
52787;DHT22;38661;53.152;5.846;2022-10-31T12:05:40;15.40;87.70
52787;DHT22;38661;53.152;5.846;2022-10-31T12:08:09;15.40;87.90
52787;DHT22;38661;53.152;5.846;2022-10-31T12:16:18;15.70;88.40
52787;DHT22;38661;53.152;5.846;2022-10-31T12:27:00;16.90;86.70
52787;DHT22;38661;53.152;5.846;2022-10-31T12:34:59;17.00;84.80
52787;DHT22;38661;53.152;5.846;2022-10-31T12:37:53;16.90;85.50
52787;DHT22;38661;53.152;5.846;2022-10-31T12:46:02;17.40;84.90
52787;DHT22;38661;53.152;5.846;2022-10-31T12:57:27;17.90;83.50
52787;DHT22;38661;53.152;5.846;2022-10-31T13:00:17;17.80;83.30
52787;DHT22;38661;53.152;5.846;2022-10-31T13:03:02;17.60;81.00
52787;DHT22;38661;53.152;5.846;2022-10-31T13:05:34;17.40;81.80
52787;DHT22;38661;53.152;5.846;2022-10-31T13:08:16;17.40;82.00
52787;DHT22;38661;53.152;5.846;2022-10-31T13:11:02;17.60;82.80
52787;DHT22;38661;53.152;5.846;2022-10-31T13:13:58;17.80;82.90
52787;DHT22;38661;53.152;5.846;2022-10-31T13:16:29;18.00;79.90
52787;DHT22;38661;53.152;5.846;2022-10-31T13:19:04;18.30;80.40
52787;DHT22;38661;53.152;5.846;2022-10-31T13:21:57;18.50;79.00
52787;DHT22;38661;53.152;5.846;2022-10-31T13:24:36;18.70;77.80
52787;DHT22;38661;53.152;5.846;2022-10-31T13:27:09;19.10;79.30
52787;DHT22;38661;53.152;5.846;2022-10-31T13:29:42;19.40;78.50
52787;DHT22;38661;53.152;5.846;2022-10-31T13:32:11;19.60;77.50
52787;DHT22;38661;53.152;5.846;2022-10-31T13:34:44;19.90;77.60
52787;DHT22;38661;53.152;5.846;2022-10-31T13:37:34;20.00;76.50
52787;DHT22;38661;53.152;5.846;2022-10-31T13:46:38;20.40;71.80
52787;DHT22;38661;53.152;5.846;2022-10-31T13:49:18;20.40;69.20
52787;DHT22;38661;53.152;5.846;2022-10-31T13:51:46;20.00;73.50
52787;DHT22;38661;53.152;5.846;2022-10-31T13:54:31;19.50;73.40
52787;DHT22;38661;53.152;5.846;2022-10-31T13:56:58;19.10;74.00
52787;DHT22;38661;53.152;5.846;2022-10-31T13:59:26;18.80;75.40
52787;DHT22;38661;53.152;5.846;2022-10-31T14:02:00;18.70;76.50
52787;DHT22;38661;53.152;5.846;2022-10-31T14:04:37;18.60;76.50
52787;DHT22;38661;53.152;5.846;2022-10-31T14:07:15;18.90;76.70
52787;DHT22;38661;53.152;5.846;2022-10-31T14:10:07;19.20;76.20
52787;DHT22;38661;53.152;5.846;2022-10-31T14:12:46;19.20;76.10
52787;DHT22;38661;53.152;5.846;2022-10-31T14:15:13;19.00;76.90
52787;DHT22;38661;53.152;5.846;2022-10-31T14:18:02;18.80;77.20
52787;DHT22;38661;53.152;5.846;2022-10-31T14:20:40;18.60;76.80
52787;DHT22;38661;53.152;5.846;2022-10-31T14:23:39;18.20;77.60
52787;DHT22;38661;53.152;5.846;2022-10-31T14:28:47;17.90;78.60
52787;DHT22;38661;53.152;5.846;2022-10-31T14:31:39;17.70;79.20
52787;DHT22;38661;53.152;5.846;2022-10-31T14:34:21;17.50;79.40
52787;DHT22;38661;53.152;5.846;2022-10-31T14:40:18;17.20;80.20
52787;DHT22;38661;53.152;5.846;2022-10-31T14:51:21;16.70;81.80
52787;DHT22;38661;53.152;5.846;2022-10-31T14:53:53;16.60;82.10
52787;DHT22;38661;53.152;5.846;2022-10-31T14:56:31;16.50;82.30
52787;DHT22;38661;53.152;5.846;2022-10-31T14:59:00;16.30;82.50
52787;DHT22;38661;53.152;5.846;2022-10-31T15:01:35;16.30;82.80
52787;DHT22;38661;53.152;5.846;2022-10-31T15:04:22;16.20;83.00
52787;DHT22;38661;53.152;5.846;2022-10-31T15:06:57;16.20;83.40
52787;DHT22;38661;53.152;5.846;2022-10-31T15:09:30;16.10;83.30
52787;DHT22;38661;53.152;5.846;2022-10-31T15:12:22;16.00;83.40
52787;DHT22;38661;53.152;5.846;2022-10-31T15:14:46;15.90;83.20
52787;DHT22;38661;53.152;5.846;2022-10-31T15:17:12;15.80;83.30
52787;DHT22;38661;53.152;5.846;2022-10-31T15:19:38;15.80;83.40
52787;DHT22;38661;53.152;5.846;2022-10-31T15:22:04;15.70;83.60
52787;DHT22;38661;53.152;5.846;2022-10-31T15:24:34;15.60;83.80
52787;DHT22;38661;53.152;5.846;2022-10-31T15:27:00;15.60;84.00
52787;DHT22;38661;53.152;5.846;2022-10-31T15:29:27;15.60;84.30
52787;DHT22;38661;53.152;5.846;2022-10-31T15:32:27;15.60;84.50
52787;DHT22;38661;53.152;5.846;2022-10-31T15:34:55;15.50;84.50
52787;DHT22;38661;53.152;5.846;2022-10-31T15:37:23;15.50;85.00
52787;DHT22;38661;53.152;5.846;2022-10-31T15:39:51;15.40;85.20
52787;DHT22;38661;53.152;5.846;2022-10-31T15:42:30;15.40;85.40
52787;DHT22;38661;53.152;5.846;2022-10-31T15:45:05;15.40;85.50
52787;DHT22;38661;53.152;5.846;2022-10-31T15:47:31;15.30;85.70
52787;DHT22;38661;53.152;5.846;2022-10-31T15:49:59;15.30;85.90
52787;DHT22;38661;53.152;5.846;2022-10-31T15:52:36;15.20;86.10
52787;DHT22;38661;53.152;5.846;2022-10-31T15:57:48;15.10;86.20
52787;DHT22;38661;53.152;5.846;2022-10-31T16:00:30;15.10;86.20
52787;DHT22;38661;53.152;5.846;2022-10-31T16:03:10;15.10;86.30
52787;DHT22;38661;53.152;5.846;2022-10-31T16:05:57;15.00;86.70
52787;DHT22;38661;53.152;5.846;2022-10-31T16:13:30;14.90;86.90
52787;DHT22;38661;53.152;5.846;2022-10-31T16:16:03;14.90;86.70
52787;DHT22;38661;53.152;5.846;2022-10-31T16:18:35;14.90;87.00
52787;DHT22;38661;53.152;5.846;2022-10-31T16:21:04;14.80;86.90
52787;DHT22;38661;53.152;5.846;2022-10-31T16:23:31;14.80;87.00
52787;DHT22;38661;53.152;5.846;2022-10-31T16:25:56;14.80;87.10
52787;DHT22;38661;53.152;5.846;2022-10-31T16:28:25;14.80;87.20
52787;DHT22;38661;53.152;5.846;2022-10-31T16:30:55;14.70;87.30
52787;DHT22;38661;53.152;5.846;2022-10-31T16:33:31;14.70;87.50
52787;DHT22;38661;53.152;5.846;2022-10-31T16:35:59;14.70;87.40
52787;DHT22;38661;53.152;5.846;2022-10-31T16:38:26;14.70;87.40
52787;DHT22;38661;53.152;5.846;2022-10-31T16:40:52;14.70;87.50
52787;DHT22;38661;53.152;5.846;2022-10-31T16:43:19;14.70;87.60
52787;DHT22;38661;53.152;5.846;2022-10-31T16:45:48;14.70;87.70
52787;DHT22;38661;53.152;5.846;2022-10-31T16:48:20;14.60;87.80
52787;DHT22;38661;53.152;5.846;2022-10-31T16:50:48;14.60;87.90
52787;DHT22;38661;53.152;5.846;2022-10-31T16:53:15;14.60;88.10
52787;DHT22;38661;53.152;5.846;2022-10-31T16:55:54;14.50;88.40
52787;DHT22;38661;53.152;5.846;2022-10-31T16:58:29;14.50;88.30
52787;DHT22;38661;53.152;5.846;2022-10-31T17:00:57;14.50;88.60
52787;DHT22;38661;53.152;5.846;2022-10-31T17:03:23;14.50;88.50
52787;DHT22;38661;53.152;5.846;2022-10-31T17:05:49;14.50;88.80
52787;DHT22;38661;53.152;5.846;2022-10-31T17:08:15;14.50;89.00
52787;DHT22;38661;53.152;5.846;2022-10-31T17:10:42;14.50;89.00
52787;DHT22;38661;53.152;5.846;2022-10-31T17:13:17;14.40;89.00
52787;DHT22;38661;53.152;5.846;2022-10-31T17:15:46;14.50;88.80
52787;DHT22;38661;53.152;5.846;2022-10-31T17:18:14;14.50;88.80
52787;DHT22;38661;53.152;5.846;2022-10-31T17:20:40;14.40;88.90
52787;DHT22;38661;53.152;5.846;2022-10-31T17:23:08;14.50;88.70
52787;DHT22;38661;53.152;5.846;2022-10-31T17:25:34;14.40;89.00
52787;DHT22;38661;53.152;5.846;2022-10-31T17:28:00;14.40;89.20
52787;DHT22;38661;53.152;5.846;2022-10-31T17:30:26;14.40;89.10
52787;DHT22;38661;53.152;5.846;2022-10-31T17:32:52;14.40;88.90
52787;DHT22;38661;53.152;5.846;2022-10-31T17:35:20;14.40;89.10
52787;DHT22;38661;53.152;5.846;2022-10-31T17:37:47;14.40;89.30
52787;DHT22;38661;53.152;5.846;2022-10-31T17:40:15;14.30;89.30
52787;DHT22;38661;53.152;5.846;2022-10-31T17:42:41;14.30;89.30
52787;DHT22;38661;53.152;5.846;2022-10-31T17:45:08;14.30;89.40
52787;DHT22;38661;53.152;5.846;2022-10-31T17:47:34;14.30;89.70